sensor_id;sensor_type;location;lat;lon;timestamp;temperature;humidity
21891;DHT22;11110;52.386;16.940;2022-09-12T00:01:26;26.70;48.40
21891;DHT22;11110;52.386;16.940;2022-09-12T00:03:58;26.60;48.40
21891;DHT22;11110;52.386;16.940;2022-09-12T00:06:30;26.70;48.50
21891;DHT22;11110;52.386;16.940;2022-09-12T00:09:00;26.60;48.50
21891;DHT22;11110;52.386;16.940;2022-09-12T00:11:29;26.60;48.50
21891;DHT22;11110;52.386;16.940;2022-09-12T00:13:59;26.70;48.50
21891;DHT22;11110;52.386;16.940;2022-09-12T00:16:30;26.70;48.40
21891;DHT22;11110;52.386;16.940;2022-09-12T00:19:01;26.60;48.40
21891;DHT22;11110;52.386;16.940;2022-09-12T00:21:31;26.70;48.40
21891;DHT22;11110;52.386;16.940;2022-09-12T00:24:01;26.60;48.40
21891;DHT22;11110;52.386;16.940;2022-09-12T00:26:30;26.70;48.40
21891;DHT22;11110;52.386;16.940;2022-09-12T00:28:59;26.70;48.40
21891;DHT22;11110;52.386;16.940;2022-09-12T00:31:27;26.50;48.20
21891;DHT22;11110;52.386;16.940;2022-09-12T00:33:58;26.60;48.30
21891;DHT22;11110;52.386;16.940;2022-09-12T00:36:29;26.50;48.30
21891;DHT22;11110;52.386;16.940;2022-09-12T00:38:58;26.60;48.40
21891;DHT22;11110;52.386;16.940;2022-09-12T00:41:28;26.60;48.40
21891;DHT22;11110;52.386;16.940;2022-09-12T00:43:58;26.50;48.60
21891;DHT22;11110;52.386;16.940;2022-09-12T00:46:33;26.60;48.80
21891;DHT22;11110;52.386;16.940;2022-09-12T00:49:05;26.60;48.50
21891;DHT22;11110;52.386;16.940;2022-09-12T00:51:36;26.60;49.00
21891;DHT22;11110;52.386;16.940;2022-09-12T00:54:07;26.60;48.30
21891;DHT22;11110;52.386;16.940;2022-09-12T00:56:39;26.60;48.20
21891;DHT22;11110;52.386;16.940;2022-09-12T00:59:12;26.70;48.20
21891;DHT22;11110;52.386;16.940;2022-09-12T01:01:43;26.70;48.20
21891;DHT22;11110;52.386;16.940;2022-09-12T01:04:15;26.80;48.10
21891;DHT22;11110;52.386;16.940;2022-09-12T01:06:47;26.80;48.00
21891;DHT22;11110;52.386;16.940;2022-09-12T01:09:18;26.80;48.00
21891;DHT22;11110;52.386;16.940;2022-09-12T01:11:50;26.80;47.80
21891;DHT22;11110;52.386;16.940;2022-09-12T01:14:19;26.80;47.80
21891;DHT22;11110;52.386;16.940;2022-09-12T01:16:49;26.90;47.90
21891;DHT22;11110;52.386;16.940;2022-09-12T01:19:56;26.90;47.80
21891;DHT22;11110;52.386;16.940;2022-09-12T01:22:50;27.00;47.70
21891;DHT22;11110;52.386;16.940;2022-09-12T01:25:27;26.90;47.60
21891;DHT22;11110;52.386;16.940;2022-09-12T01:28:14;26.90;47.60
21891;DHT22;11110;52.386;16.940;2022-09-12T01:30:55;26.90;47.60
21891;DHT22;11110;52.386;16.940;2022-09-12T01:33:35;26.90;47.60
21891;DHT22;11110;52.386;16.940;2022-09-12T01:36:27;27.00;47.60
21891;DHT22;11110;52.386;16.940;2022-09-12T01:39:01;27.00;47.60
21891;DHT22;11110;52.386;16.940;2022-09-12T01:41:40;26.90;47.50
21891;DHT22;11110;52.386;16.940;2022-09-12T01:44:13;26.90;47.50
21891;DHT22;11110;52.386;16.940;2022-09-12T01:46:52;26.90;47.50
21891;DHT22;11110;52.386;16.940;2022-09-12T01:49:25;26.90;47.60
21891;DHT22;11110;52.386;16.940;2022-09-12T01:51:59;26.90;47.60
21891;DHT22;11110;52.386;16.940;2022-09-12T01:54:32;26.90;47.60
21891;DHT22;11110;52.386;16.940;2022-09-12T01:57:09;26.90;47.60
21891;DHT22;11110;52.386;16.940;2022-09-12T01:59:40;26.90;47.60
21891;DHT22;11110;52.386;16.940;2022-09-12T02:02:14;26.90;47.70
21891;DHT22;11110;52.386;16.940;2022-09-12T02:04:47;27.00;48.40
21891;DHT22;11110;52.386;16.940;2022-09-12T02:07:19;26.80;47.60
21891;DHT22;11110;52.386;16.940;2022-09-12T02:09:51;26.80;47.70
21891;DHT22;11110;52.386;16.940;2022-09-12T02:12:24;26.80;47.80
21891;DHT22;11110;52.386;16.940;2022-09-12T02:14:57;26.80;47.90
21891;DHT22;11110;52.386;16.940;2022-09-12T02:17:30;26.80;48.00
21891;DHT22;11110;52.386;16.940;2022-09-12T02:20:04;26.70;48.00
21891;DHT22;11110;52.386;16.940;2022-09-12T02:22:49;26.70;48.10
21891;DHT22;11110;52.386;16.940;2022-09-12T02:25:19;26.60;48.10
21891;DHT22;11110;52.386;16.940;2022-09-12T02:27:55;26.60;48.20
21891;DHT22;11110;52.386;16.940;2022-09-12T02:30:26;26.60;48.20
21891;DHT22;11110;52.386;16.940;2022-09-12T02:33:01;26.60;48.20
21891;DHT22;11110;52.386;16.940;2022-09-12T02:35:37;26.70;48.20
21891;DHT22;11110;52.386;16.940;2022-09-12T02:38:10;26.70;48.30
21891;DHT22;11110;52.386;16.940;2022-09-12T02:40:41;26.80;48.40
21891;DHT22;11110;52.386;16.940;2022-09-12T02:43:10;26.70;48.30
21891;DHT22;11110;52.386;16.940;2022-09-12T02:45:38;26.70;48.20
21891;DHT22;11110;52.386;16.940;2022-09-12T02:48:11;26.80;48.30
21891;DHT22;11110;52.386;16.940;2022-09-12T02:50:41;26.70;48.20
21891;DHT22;11110;52.386;16.940;2022-09-12T02:53:10;26.70;48.10
21891;DHT22;11110;52.386;16.940;2022-09-12T02:55:40;26.80;48.10
21891;DHT22;11110;52.386;16.940;2022-09-12T02:58:11;26.10;47.60
21891;DHT22;11110;52.386;16.940;2022-09-12T03:00:45;26.70;48.00
21891;DHT22;11110;52.386;16.940;2022-09-12T03:03:49;26.90;48.10
21891;DHT22;11110;52.386;16.940;2022-09-12T03:06:28;26.80;48.00
21891;DHT22;11110;52.386;16.940;2022-09-12T03:09:06;26.80;48.10
21891;DHT22;11110;52.386;16.940;2022-09-12T03:12:07;26.80;48.00
21891;DHT22;11110;52.386;16.940;2022-09-12T03:15:02;26.70;48.00
21891;DHT22;11110;52.386;16.940;2022-09-12T03:17:43;26.80;48.20
21891;DHT22;11110;52.386;16.940;2022-09-12T03:20:22;26.70;48.10
21891;DHT22;11110;52.386;16.940;2022-09-12T03:22:55;26.70;48.10
21891;DHT22;11110;52.386;16.940;2022-09-12T03:25:27;26.60;48.00
21891;DHT22;11110;52.386;16.940;2022-09-12T03:27:59;26.80;48.20
21891;DHT22;11110;52.386;16.940;2022-09-12T03:30:37;26.70;48.20
21891;DHT22;11110;52.386;16.940;2022-09-12T03:33:05;26.70;48.30
21891;DHT22;11110;52.386;16.940;2022-09-12T03:35:39;26.70;48.30
21891;DHT22;11110;52.386;16.940;2022-09-12T03:38:07;26.70;48.30
21891;DHT22;11110;52.386;16.940;2022-09-12T03:40:35;26.70;48.40
21891;DHT22;11110;52.386;16.940;2022-09-12T03:43:05;26.60;48.50
21891;DHT22;11110;52.386;16.940;2022-09-12T03:45:34;26.70;48.60
21891;DHT22;11110;52.386;16.940;2022-09-12T03:48:03;26.70;48.50
21891;DHT22;11110;52.386;16.940;2022-09-12T03:50:32;26.70;48.60
21891;DHT22;11110;52.386;16.940;2022-09-12T03:53:02;26.70;48.70
21891;DHT22;11110;52.386;16.940;2022-09-12T03:55:30;26.70;48.70
21891;DHT22;11110;52.386;16.940;2022-09-12T03:57:59;26.60;48.80
21891;DHT22;11110;52.386;16.940;2022-09-12T04:00:27;26.70;48.90
21891;DHT22;11110;52.386;16.940;2022-09-12T04:02:56;26.70;49.00
21891;DHT22;11110;52.386;16.940;2022-09-12T04:05:25;26.70;49.20
21891;DHT22;11110;52.386;16.940;2022-09-12T04:07:53;26.70;49.20
21891;DHT22;11110;52.386;16.940;2022-09-12T04:10:23;26.60;49.00
21891;DHT22;11110;52.386;16.940;2022-09-12T04:12:53;26.70;49.20
21891;DHT22;11110;52.386;16.940;2022-09-12T04:15:21;26.60;49.20
21891;DHT22;11110;52.386;16.940;2022-09-12T04:17:50;26.70;49.50
21891;DHT22;11110;52.386;16.940;2022-09-12T04:20:18;26.70;49.50
21891;DHT22;11110;52.386;16.940;2022-09-12T04:22:46;26.70;49.40
21891;DHT22;11110;52.386;16.940;2022-09-12T04:25:15;26.80;49.40
21891;DHT22;11110;52.386;16.940;2022-09-12T04:27:45;26.70;49.30
21891;DHT22;11110;52.386;16.940;2022-09-12T04:30:13;26.80;50.00
21891;DHT22;11110;52.386;16.940;2022-09-12T04:32:41;26.80;49.30
21891;DHT22;11110;52.386;16.940;2022-09-12T04:35:10;26.80;49.60
21891;DHT22;11110;52.386;16.940;2022-09-12T04:37:38;26.80;49.50
21891;DHT22;11110;52.386;16.940;2022-09-12T04:40:07;26.80;49.40
21891;DHT22;11110;52.386;16.940;2022-09-12T04:42:36;26.80;49.40
21891;DHT22;11110;52.386;16.940;2022-09-12T04:45:06;26.70;49.30
21891;DHT22;11110;52.386;16.940;2022-09-12T04:47:35;26.80;49.40
21891;DHT22;11110;52.386;16.940;2022-09-12T04:50:05;26.80;49.50
21891;DHT22;11110;52.386;16.940;2022-09-12T04:52:33;26.80;49.40
21891;DHT22;11110;52.386;16.940;2022-09-12T04:55:02;26.90;49.60
21891;DHT22;11110;52.386;16.940;2022-09-12T04:57:30;26.90;49.70
21891;DHT22;11110;52.386;16.940;2022-09-12T04:59:58;26.90;49.60
21891;DHT22;11110;52.386;16.940;2022-09-12T05:02:35;26.90;49.70
21891;DHT22;11110;52.386;16.940;2022-09-12T05:05:04;26.90;49.50
21891;DHT22;11110;52.386;16.940;2022-09-12T05:07:33;26.90;49.50
21891;DHT22;11110;52.386;16.940;2022-09-12T05:10:02;26.90;49.40
21891;DHT22;11110;52.386;16.940;2022-09-12T05:12:31;27.00;49.50
21891;DHT22;11110;52.386;16.940;2022-09-12T05:14:59;27.00;49.60
21891;DHT22;11110;52.386;16.940;2022-09-12T05:17:28;27.00;49.40
21891;DHT22;11110;52.386;16.940;2022-09-12T05:19:57;27.00;49.40
21891;DHT22;11110;52.386;16.940;2022-09-12T05:22:26;27.00;49.30
21891;DHT22;11110;52.386;16.940;2022-09-12T05:24:55;27.00;49.30
21891;DHT22;11110;52.386;16.940;2022-09-12T05:27:23;27.00;49.20
21891;DHT22;11110;52.386;16.940;2022-09-12T05:29:51;27.10;49.20
21891;DHT22;11110;52.386;16.940;2022-09-12T05:32:19;27.10;49.10
21891;DHT22;11110;52.386;16.940;2022-09-12T05:34:48;27.10;49.20
21891;DHT22;11110;52.386;16.940;2022-09-12T05:37:21;27.10;49.30
21891;DHT22;11110;52.386;16.940;2022-09-12T05:39:49;27.20;49.30
21891;DHT22;11110;52.386;16.940;2022-09-12T05:42:18;27.20;49.40
21891;DHT22;11110;52.386;16.940;2022-09-12T05:44:46;27.20;49.20
21891;DHT22;11110;52.386;16.940;2022-09-12T05:47:15;27.20;49.20
21891;DHT22;11110;52.386;16.940;2022-09-12T05:49:44;27.20;49.20
21891;DHT22;11110;52.386;16.940;2022-09-12T05:52:13;27.20;49.20
21891;DHT22;11110;52.386;16.940;2022-09-12T05:54:43;27.20;49.30
21891;DHT22;11110;52.386;16.940;2022-09-12T05:57:13;27.20;49.20
21891;DHT22;11110;52.386;16.940;2022-09-12T05:59:41;27.20;49.40
21891;DHT22;11110;52.386;16.940;2022-09-12T06:02:10;27.00;49.30
21891;DHT22;11110;52.386;16.940;2022-09-12T06:04:39;27.20;49.20
21891;DHT22;11110;52.386;16.940;2022-09-12T06:07:08;27.10;49.30
21891;DHT22;11110;52.386;16.940;2022-09-12T06:09:36;27.20;49.30
21891;DHT22;11110;52.386;16.940;2022-09-12T06:12:06;27.20;49.40
21891;DHT22;11110;52.386;16.940;2022-09-12T06:14:34;27.10;49.40
21891;DHT22;11110;52.386;16.940;2022-09-12T06:17:03;27.10;49.50
21891;DHT22;11110;52.386;16.940;2022-09-12T06:19:31;27.20;49.50
21891;DHT22;11110;52.386;16.940;2022-09-12T06:22:00;27.80;49.80
21891;DHT22;11110;52.386;16.940;2022-09-12T06:24:28;27.20;49.40
21891;DHT22;11110;52.386;16.940;2022-09-12T06:26:56;27.20;49.40
21891;DHT22;11110;52.386;16.940;2022-09-12T06:29:26;27.20;49.30
21891;DHT22;11110;52.386;16.940;2022-09-12T06:31:54;27.30;49.30
21891;DHT22;11110;52.386;16.940;2022-09-12T06:34:23;27.10;49.20
21891;DHT22;11110;52.386;16.940;2022-09-12T06:36:53;27.30;49.30
21891;DHT22;11110;52.386;16.940;2022-09-12T06:39:22;27.20;49.10
21891;DHT22;11110;52.386;16.940;2022-09-12T06:41:51;27.30;49.10
21891;DHT22;11110;52.386;16.940;2022-09-12T06:44:33;27.30;49.10
21891;DHT22;11110;52.386;16.940;2022-09-12T06:47:01;27.30;49.30
21891;DHT22;11110;52.386;16.940;2022-09-12T06:49:29;27.30;49.30
21891;DHT22;11110;52.386;16.940;2022-09-12T06:52:00;27.20;49.30
21891;DHT22;11110;52.386;16.940;2022-09-12T06:54:29;27.30;49.60
21891;DHT22;11110;52.386;16.940;2022-09-12T06:56:57;27.20;49.60
21891;DHT22;11110;52.386;16.940;2022-09-12T06:59:25;27.30;49.80
21891;DHT22;11110;52.386;16.940;2022-09-12T07:01:55;27.30;49.80
21891;DHT22;11110;52.386;16.940;2022-09-12T07:04:23;27.20;49.80
21891;DHT22;11110;52.386;16.940;2022-09-12T07:06:51;27.30;49.70
21891;DHT22;11110;52.386;16.940;2022-09-12T07:09:19;27.30;49.90
21891;DHT22;11110;52.386;16.940;2022-09-12T07:11:48;27.30;50.30
21891;DHT22;11110;52.386;16.940;2022-09-12T07:14:16;27.30;50.00
21891;DHT22;11110;52.386;16.940;2022-09-12T07:16:44;27.40;50.20
21891;DHT22;11110;52.386;16.940;2022-09-12T07:19:14;27.50;50.10
21891;DHT22;11110;52.386;16.940;2022-09-12T07:21:42;27.40;49.90
21891;DHT22;11110;52.386;16.940;2022-09-12T07:24:11;27.40;49.90
21891;DHT22;11110;52.386;16.940;2022-09-12T07:26:41;27.60;49.70
21891;DHT22;11110;52.386;16.940;2022-09-12T07:29:13;27.60;49.90
21891;DHT22;11110;52.386;16.940;2022-09-12T07:32:04;27.50;49.60
21891;DHT22;11110;52.386;16.940;2022-09-12T07:34:34;27.50;49.70
21891;DHT22;11110;52.386;16.940;2022-09-12T07:37:04;27.60;49.90
21891;DHT22;11110;52.386;16.940;2022-09-12T07:39:33;27.60;50.00
21891;DHT22;11110;52.386;16.940;2022-09-12T07:42:01;27.60;50.20
21891;DHT22;11110;52.386;16.940;2022-09-12T07:44:31;27.70;50.40
21891;DHT22;11110;52.386;16.940;2022-09-12T07:47:03;27.70;50.30
21891;DHT22;11110;52.386;16.940;2022-09-12T07:49:31;27.70;50.20
21891;DHT22;11110;52.386;16.940;2022-09-12T07:52:02;27.80;50.30
21891;DHT22;11110;52.386;16.940;2022-09-12T07:54:30;27.80;50.40
21891;DHT22;11110;52.386;16.940;2022-09-12T07:56:59;27.90;49.90
21891;DHT22;11110;52.386;16.940;2022-09-12T07:59:27;27.90;49.70
21891;DHT22;11110;52.386;16.940;2022-09-12T08:02:15;27.90;49.50
21891;DHT22;11110;52.386;16.940;2022-09-12T08:04:45;27.90;49.50
21891;DHT22;11110;52.386;16.940;2022-09-12T08:07:15;27.70;49.50
21891;DHT22;11110;52.386;16.940;2022-09-12T08:09:45;27.90;50.10
21891;DHT22;11110;52.386;16.940;2022-09-12T08:12:14;27.90;50.10
21891;DHT22;11110;52.386;16.940;2022-09-12T08:14:43;27.90;49.50
21891;DHT22;11110;52.386;16.940;2022-09-12T08:17:12;27.90;49.70
21891;DHT22;11110;52.386;16.940;2022-09-12T08:19:40;27.90;49.90
21891;DHT22;11110;52.386;16.940;2022-09-12T08:22:09;27.90;50.20
21891;DHT22;11110;52.386;16.940;2022-09-12T08:24:39;28.00;50.10
21891;DHT22;11110;52.386;16.940;2022-09-12T08:27:07;28.10;49.70
21891;DHT22;11110;52.386;16.940;2022-09-12T08:29:36;28.10;49.30
21891;DHT22;11110;52.386;16.940;2022-09-12T08:32:05;28.10;49.10
21891;DHT22;11110;52.386;16.940;2022-09-12T08:34:33;28.10;49.20
21891;DHT22;11110;52.386;16.940;2022-09-12T08:37:01;28.00;49.20
21891;DHT22;11110;52.386;16.940;2022-09-12T08:39:30;28.20;49.40
21891;DHT22;11110;52.386;16.940;2022-09-12T08:42:02;28.20;49.00
21891;DHT22;11110;52.386;16.940;2022-09-12T08:44:45;28.20;49.00
21891;DHT22;11110;52.386;16.940;2022-09-12T08:47:21;28.30;48.50
21891;DHT22;11110;52.386;16.940;2022-09-12T08:49:58;28.20;48.40
21891;DHT22;11110;52.386;16.940;2022-09-12T08:52:32;28.20;48.50
21891;DHT22;11110;52.386;16.940;2022-09-12T08:55:02;28.20;48.30
21891;DHT22;11110;52.386;16.940;2022-09-12T08:57:33;28.20;47.90
21891;DHT22;11110;52.386;16.940;2022-09-12T09:00:03;28.20;48.00
21891;DHT22;11110;52.386;16.940;2022-09-12T09:02:56;28.20;48.00
21891;DHT22;11110;52.386;16.940;2022-09-12T09:05:36;28.30;48.10
21891;DHT22;11110;52.386;16.940;2022-09-12T09:08:17;28.30;48.30
21891;DHT22;11110;52.386;16.940;2022-09-12T09:10:50;28.30;48.00
21891;DHT22;11110;52.386;16.940;2022-09-12T09:13:36;28.30;47.00
21891;DHT22;11110;52.386;16.940;2022-09-12T09:16:34;28.20;47.10
21891;DHT22;11110;52.386;16.940;2022-09-12T09:19:07;28.30;47.30
21891;DHT22;11110;52.386;16.940;2022-09-12T09:21:41;28.40;47.50
21891;DHT22;11110;52.386;16.940;2022-09-12T09:24:12;28.40;47.20
21891;DHT22;11110;52.386;16.940;2022-09-12T09:26:47;28.40;47.30
21891;DHT22;11110;52.386;16.940;2022-09-12T09:29:19;28.40;47.40
21891;DHT22;11110;52.386;16.940;2022-09-12T09:31:50;28.50;47.60
21891;DHT22;11110;52.386;16.940;2022-09-12T09:34:21;28.60;47.10
21891;DHT22;11110;52.386;16.940;2022-09-12T09:36:51;28.70;47.90
21891;DHT22;11110;52.386;16.940;2022-09-12T09:39:33;28.60;47.20
21891;DHT22;11110;52.386;16.940;2022-09-12T09:42:20;28.70;46.50
21891;DHT22;11110;52.386;16.940;2022-09-12T09:44:55;28.70;46.40
21891;DHT22;11110;52.386;16.940;2022-09-12T09:47:26;28.70;46.40
21891;DHT22;11110;52.386;16.940;2022-09-12T09:49:54;28.60;46.00
21891;DHT22;11110;52.386;16.940;2022-09-12T09:52:25;28.80;45.60
21891;DHT22;11110;52.386;16.940;2022-09-12T09:54:57;28.90;45.50
21891;DHT22;11110;52.386;16.940;2022-09-12T09:57:40;28.80;45.70
21891;DHT22;11110;52.386;16.940;2022-09-12T10:00:23;28.80;45.10
21891;DHT22;11110;52.386;16.940;2022-09-12T10:03:23;28.90;45.10
21891;DHT22;11110;52.386;16.940;2022-09-12T10:05:54;28.90;44.90
21891;DHT22;11110;52.386;16.940;2022-09-12T10:08:24;28.70;44.90
21891;DHT22;11110;52.386;16.940;2022-09-12T10:10:55;28.80;44.80
21891;DHT22;11110;52.386;16.940;2022-09-12T10:13:35;28.70;44.50
21891;DHT22;11110;52.386;16.940;2022-09-12T10:16:15;28.90;44.70
21891;DHT22;11110;52.386;16.940;2022-09-12T10:18:45;29.00;45.10
21891;DHT22;11110;52.386;16.940;2022-09-12T10:21:18;29.00;45.10
21891;DHT22;11110;52.386;16.940;2022-09-12T10:23:52;29.10;44.40
21891;DHT22;11110;52.386;16.940;2022-09-12T10:26:31;29.20;43.80
21891;DHT22;11110;52.386;16.940;2022-09-12T10:29:04;29.20;42.90
21891;DHT22;11110;52.386;16.940;2022-09-12T10:31:45;29.30;42.90
21891;DHT22;11110;52.386;16.940;2022-09-12T10:34:25;29.40;42.90
21891;DHT22;11110;52.386;16.940;2022-09-12T10:37:02;29.30;43.00
21891;DHT22;11110;52.386;16.940;2022-09-12T10:39:32;29.40;43.20
21891;DHT22;11110;52.386;16.940;2022-09-12T10:42:03;29.50;43.20
21891;DHT22;11110;52.386;16.940;2022-09-12T10:44:33;29.50;43.00
21891;DHT22;11110;52.386;16.940;2022-09-12T10:47:19;29.60;43.20
21891;DHT22;11110;52.386;16.940;2022-09-12T10:49:49;29.70;42.90
21891;DHT22;11110;52.386;16.940;2022-09-12T10:52:21;29.80;42.70
21891;DHT22;11110;52.386;16.940;2022-09-12T10:54:53;29.70;42.70
21891;DHT22;11110;52.386;16.940;2022-09-12T10:58:00;29.80;42.80
21891;DHT22;11110;52.386;16.940;2022-09-12T11:00:34;29.90;43.00
21891;DHT22;11110;52.386;16.940;2022-09-12T11:03:14;29.90;42.90
21891;DHT22;11110;52.386;16.940;2022-09-12T11:05:56;30.00;42.00
21891;DHT22;11110;52.386;16.940;2022-09-12T11:08:50;30.10;41.80
21891;DHT22;11110;52.386;16.940;2022-09-12T11:11:42;30.10;41.20
21891;DHT22;11110;52.386;16.940;2022-09-12T11:14:31;30.10;41.10
21891;DHT22;11110;52.386;16.940;2022-09-12T11:17:12;30.10;40.60
21891;DHT22;11110;52.386;16.940;2022-09-12T11:19:58;30.10;41.10
21891;DHT22;11110;52.386;16.940;2022-09-12T11:22:39;30.10;41.10
21891;DHT22;11110;52.386;16.940;2022-09-12T11:25:28;30.20;40.60
21891;DHT22;11110;52.386;16.940;2022-09-12T11:28:21;30.20;40.70
21891;DHT22;11110;52.386;16.940;2022-09-12T11:31:01;30.30;40.40
21891;DHT22;11110;52.386;16.940;2022-09-12T11:33:40;30.20;40.70
21891;DHT22;11110;52.386;16.940;2022-09-12T11:36:21;30.30;40.80
21891;DHT22;11110;52.386;16.940;2022-09-12T11:39:02;30.30;40.90
21891;DHT22;11110;52.386;16.940;2022-09-12T11:41:35;30.40;41.30
21891;DHT22;11110;52.386;16.940;2022-09-12T11:44:11;30.50;40.10
21891;DHT22;11110;52.386;16.940;2022-09-12T11:46:43;30.40;39.90
21891;DHT22;11110;52.386;16.940;2022-09-12T11:49:27;30.50;40.30
21891;DHT22;11110;52.386;16.940;2022-09-12T11:52:10;30.60;39.50
21891;DHT22;11110;52.386;16.940;2022-09-12T11:54:43;30.70;39.50
21891;DHT22;11110;52.386;16.940;2022-09-12T11:57:24;30.70;40.00
21891;DHT22;11110;52.386;16.940;2022-09-12T11:59:57;30.80;39.70
21891;DHT22;11110;52.386;16.940;2022-09-12T12:02:29;30.80;39.60
21891;DHT22;11110;52.386;16.940;2022-09-12T12:05:03;30.80;39.70
21891;DHT22;11110;52.386;16.940;2022-09-12T12:07:45;30.90;40.50
21891;DHT22;11110;52.386;16.940;2022-09-12T12:10:30;30.90;39.70
21891;DHT22;11110;52.386;16.940;2022-09-12T12:13:01;31.00;38.40
21891;DHT22;11110;52.386;16.940;2022-09-12T12:15:30;30.90;38.50
21891;DHT22;11110;52.386;16.940;2022-09-12T12:18:04;30.90;39.00
21891;DHT22;11110;52.386;16.940;2022-09-12T12:20:33;30.90;39.20
21891;DHT22;11110;52.386;16.940;2022-09-12T12:23:03;30.90;39.70
21891;DHT22;11110;52.386;16.940;2022-09-12T12:25:40;30.90;39.90
21891;DHT22;11110;52.386;16.940;2022-09-12T12:31:24;31.00;39.90
21891;DHT22;11110;52.386;16.940;2022-09-12T12:34:21;30.90;39.60
21891;DHT22;11110;52.386;16.940;2022-09-12T12:36:53;31.00;39.90
21891;DHT22;11110;52.386;16.940;2022-09-12T12:43:02;30.90;39.40
21891;DHT22;11110;52.386;16.940;2022-09-12T12:49:06;30.90;39.50
21891;DHT22;11110;52.386;16.940;2022-09-12T12:51:58;30.90;39.40
21891;DHT22;11110;52.386;16.940;2022-09-12T12:54:54;31.00;39.50
21891;DHT22;11110;52.386;16.940;2022-09-12T12:57:30;30.90;40.00
21891;DHT22;11110;52.386;16.940;2022-09-12T13:00:05;30.90;40.00
21891;DHT22;11110;52.386;16.940;2022-09-12T13:02:38;30.90;39.80
21891;DHT22;11110;52.386;16.940;2022-09-12T13:05:16;30.90;39.50
21891;DHT22;11110;52.386;16.940;2022-09-12T13:07:52;31.00;39.60
21891;DHT22;11110;52.386;16.940;2022-09-12T13:10:23;31.10;39.40
21891;DHT22;11110;52.386;16.940;2022-09-12T13:12:55;31.00;38.90
21891;DHT22;11110;52.386;16.940;2022-09-12T13:15:47;31.00;39.10
21891;DHT22;11110;52.386;16.940;2022-09-12T13:18:22;31.10;38.80
21891;DHT22;11110;52.386;16.940;2022-09-12T13:20:55;31.10;38.80
21891;DHT22;11110;52.386;16.940;2022-09-12T13:23:28;31.10;38.70
21891;DHT22;11110;52.386;16.940;2022-09-12T13:25:58;31.10;38.40
21891;DHT22;11110;52.386;16.940;2022-09-12T13:28:29;31.10;38.30
21891;DHT22;11110;52.386;16.940;2022-09-12T13:31:01;31.10;38.10
21891;DHT22;11110;52.386;16.940;2022-09-12T13:33:38;31.20;38.50
21891;DHT22;11110;52.386;16.940;2022-09-12T13:36:20;31.20;38.20
21891;DHT22;11110;52.386;16.940;2022-09-12T13:45:00;31.20;38.40
21891;DHT22;11110;52.386;16.940;2022-09-12T13:47:33;31.10;38.60
21891;DHT22;11110;52.386;16.940;2022-09-12T13:50:03;31.20;38.20
21891;DHT22;11110;52.386;16.940;2022-09-12T13:52:34;31.20;38.30
21891;DHT22;11110;52.386;16.940;2022-09-12T13:55:07;31.20;38.40
21891;DHT22;11110;52.386;16.940;2022-09-12T13:57:38;31.20;38.50
21891;DHT22;11110;52.386;16.940;2022-09-12T14:00:14;31.10;38.50
21891;DHT22;11110;52.386;16.940;2022-09-12T14:02:49;31.20;38.70
21891;DHT22;11110;52.386;16.940;2022-09-12T14:05:38;31.10;38.90
21891;DHT22;11110;52.386;16.940;2022-09-12T14:08:12;31.10;39.10
21891;DHT22;11110;52.386;16.940;2022-09-12T14:10:44;31.10;39.30
21891;DHT22;11110;52.386;16.940;2022-09-12T14:13:18;31.10;39.30
21891;DHT22;11110;52.386;16.940;2022-09-12T14:15:49;31.20;39.30
21891;DHT22;11110;52.386;16.940;2022-09-12T14:18:23;30.60;38.60
21891;DHT22;11110;52.386;16.940;2022-09-12T14:20:53;31.20;39.10
21891;DHT22;11110;52.386;16.940;2022-09-12T14:23:27;31.20;39.50
21891;DHT22;11110;52.386;16.940;2022-09-12T14:26:01;31.30;39.80
21891;DHT22;11110;52.386;16.940;2022-09-12T14:28:31;31.30;40.00
21891;DHT22;11110;52.386;16.940;2022-09-12T14:31:02;31.30;39.20
21891;DHT22;11110;52.386;16.940;2022-09-12T14:33:45;31.40;39.00
21891;DHT22;11110;52.386;16.940;2022-09-12T14:36:20;31.50;38.70
21891;DHT22;11110;52.386;16.940;2022-09-12T14:38:50;31.50;38.50
21891;DHT22;11110;52.386;16.940;2022-09-12T14:41:24;31.50;39.00
21891;DHT22;11110;52.386;16.940;2022-09-12T14:43:57;31.60;38.70
21891;DHT22;11110;52.386;16.940;2022-09-12T14:46:30;31.60;39.20
21891;DHT22;11110;52.386;16.940;2022-09-12T14:49:06;31.60;39.10
21891;DHT22;11110;52.386;16.940;2022-09-12T14:51:38;31.80;38.90
21891;DHT22;11110;52.386;16.940;2022-09-12T14:54:35;31.70;38.40
21891;DHT22;11110;52.386;16.940;2022-09-12T14:57:13;31.80;38.00
21891;DHT22;11110;52.386;16.940;2022-09-12T14:59:45;31.80;37.90
21891;DHT22;11110;52.386;16.940;2022-09-12T15:02:20;31.70;37.90
21891;DHT22;11110;52.386;16.940;2022-09-12T15:04:54;31.90;37.90
21891;DHT22;11110;52.386;16.940;2022-09-12T15:07:30;31.90;38.30
21891;DHT22;11110;52.386;16.940;2022-09-12T15:10:03;31.90;38.20
21891;DHT22;11110;52.386;16.940;2022-09-12T15:12:32;31.90;38.00
21891;DHT22;11110;52.386;16.940;2022-09-12T15:15:12;31.90;37.90
21891;DHT22;11110;52.386;16.940;2022-09-12T15:17:40;32.00;38.10
21891;DHT22;11110;52.386;16.940;2022-09-12T15:20:11;32.00;38.40
21891;DHT22;11110;52.386;16.940;2022-09-12T15:22:40;32.00;38.30
21891;DHT22;11110;52.386;16.940;2022-09-12T15:25:10;32.00;38.30
21891;DHT22;11110;52.386;16.940;2022-09-12T15:27:39;32.00;38.00
21891;DHT22;11110;52.386;16.940;2022-09-12T15:30:09;32.10;37.40
21891;DHT22;11110;52.386;16.940;2022-09-12T15:32:40;32.10;37.20
21891;DHT22;11110;52.386;16.940;2022-09-12T15:35:14;32.10;37.70
21891;DHT22;11110;52.386;16.940;2022-09-12T15:37:44;32.10;37.40
21891;DHT22;11110;52.386;16.940;2022-09-12T15:40:13;32.10;37.20
21891;DHT22;11110;52.386;16.940;2022-09-12T15:42:41;32.10;37.00
21891;DHT22;11110;52.386;16.940;2022-09-12T15:45:15;32.00;37.40
21891;DHT22;11110;52.386;16.940;2022-09-12T15:47:45;32.00;37.50
21891;DHT22;11110;52.386;16.940;2022-09-12T15:50:15;32.00;37.30
21891;DHT22;11110;52.386;16.940;2022-09-12T15:52:47;32.00;37.60
21891;DHT22;11110;52.386;16.940;2022-09-12T15:55:24;32.00;38.80
21891;DHT22;11110;52.386;16.940;2022-09-12T15:57:53;31.40;38.80
21891;DHT22;11110;52.386;16.940;2022-09-12T16:00:22;31.90;39.40
21891;DHT22;11110;52.386;16.940;2022-09-12T16:02:51;31.80;39.40
21891;DHT22;11110;52.386;16.940;2022-09-12T16:05:23;31.80;39.50
21891;DHT22;11110;52.386;16.940;2022-09-12T16:07:53;31.70;39.50
21891;DHT22;11110;52.386;16.940;2022-09-12T16:10:24;31.70;39.70